createdAt,value
2022-10-14T00:05:41.649Z,12.70
2022-10-14T00:11:44.916Z,12.60
2022-10-14T00:17:46.799Z,12.60
2022-10-14T00:23:49.192Z,12.60
2022-10-14T00:29:51.078Z,12.70
2022-10-14T00:36:03.691Z,12.70
2022-10-14T00:42:14.013Z,12.60
2022-10-14T00:48:17.978Z,12.50
2022-10-14T00:54:24.331Z,12.50
2022-10-14T01:00:27.311Z,12.50
2022-10-14T01:06:51.443Z,12.50
2022-10-14T01:13:14.429Z,12.50
2022-10-14T01:19:46.228Z,12.50
2022-10-14T01:25:56.679Z,12.60
2022-10-14T01:32:30.439Z,12.60
2022-10-14T01:38:39.863Z,12.50
2022-10-14T01:44:48.949Z,12.50
2022-10-14T01:50:53.768Z,12.50
2022-10-14T01:56:59.859Z,12.40
2022-10-14T02:03:02.446Z,12.50
2022-10-14T02:09:26.673Z,12.50
2022-10-14T02:15:37.601Z,12.40
2022-10-14T02:21:51.311Z,12.40
2022-10-14T02:27:54.502Z,12.40
2022-10-14T02:33:59.461Z,12.40
2022-10-14T02:40:11.452Z,12.40
2022-10-14T02:46:13.577Z,12.40
2022-10-14T02:52:15.957Z,12.40
2022-10-14T02:58:18.092Z,12.50
2022-10-14T03:04:20.087Z,12.40
2022-10-14T03:10:22.026Z,12.40
2022-10-14T03:16:24.553Z,12.40
2022-10-14T03:22:27.891Z,12.40
2022-10-14T03:28:31.002Z,12.50
2022-10-14T03:34:43.768Z,12.50
2022-10-14T03:40:50.811Z,12.40
2022-10-14T03:46:53.027Z,12.50
2022-10-14T03:52:58.302Z,12.50
2022-10-14T03:59:07.027Z,12.50
2022-10-14T04:05:09.770Z,12.50
2022-10-14T04:11:12.122Z,12.50
2022-10-14T04:17:15.906Z,12.40
2022-10-14T04:23:18.870Z,12.40
2022-10-14T04:29:24.361Z,12.30
2022-10-14T04:35:31.754Z,12.30
2022-10-14T04:41:33.744Z,12.30
2022-10-14T04:47:37.249Z,12.30
2022-10-14T04:53:39.738Z,12.30
2022-10-14T05:00:02.103Z,12.30
2022-10-14T05:06:22.550Z,12.30
2022-10-14T05:12:28.734Z,12.30
2022-10-14T05:18:35.150Z,12.30
2022-10-14T05:24:41.905Z,12.20
2022-10-14T05:30:44.275Z,12.20
2022-10-14T05:36:46.971Z,12.10
2022-10-14T05:42:48.989Z,12.10
2022-10-14T05:48:55.981Z,12.10
2022-10-14T05:54:58.872Z,12.10
2022-10-14T06:01:04.021Z,12.20
2022-10-14T06:07:05.984Z,12.30
2022-10-14T06:13:07.922Z,12.30
2022-10-14T06:19:12.678Z,12.40
2022-10-14T06:25:14.632Z,12.40
2022-10-14T06:31:16.703Z,12.50
2022-10-14T06:37:18.520Z,12.60
2022-10-14T06:43:21.536Z,12.70
2022-10-14T06:49:23.438Z,12.90
2022-10-14T06:55:25.289Z,13.00
2022-10-14T07:01:27.449Z,13.00
2022-10-14T07:07:29.406Z,13.10
2022-10-14T07:13:31.583Z,13.20
2022-10-14T07:19:33.511Z,13.30
2022-10-14T07:25:35.497Z,13.40
2022-10-14T07:31:40.291Z,13.50
2022-10-14T07:37:48.032Z,13.50
2022-10-14T07:43:58.489Z,13.60
2022-10-14T07:50:02.199Z,13.70
2022-10-14T07:56:04.336Z,13.90
2022-10-14T08:02:06.436Z,14.00
2022-10-14T08:08:09.682Z,14.10
2022-10-14T08:14:12.363Z,14.00
2022-10-14T08:20:14.465Z,14.00
2022-10-14T08:26:26.444Z,14.00
2022-10-14T08:32:28.922Z,14.10
2022-10-14T08:38:30.927Z,14.10
2022-10-14T08:44:55.056Z,14.20
2022-10-14T08:51:09.496Z,14.30
2022-10-14T08:57:27.463Z,14.40
2022-10-14T09:03:34.023Z,14.60
2022-10-14T09:09:45.198Z,14.90
2022-10-14T09:16:05.741Z,15.00
2022-10-14T09:22:14.404Z,15.10
2022-10-14T09:28:16.762Z,15.20
2022-10-14T09:34:27.798Z,15.40
2022-10-14T09:40:42.627Z,15.90
2022-10-14T09:46:51.001Z,16.10
2022-10-14T09:52:58.168Z,16.50
2022-10-14T09:59:01.345Z,16.80
2022-10-14T10:05:26.679Z,17.20
2022-10-14T10:11:37.756Z,16.80
2022-10-14T10:17:40.731Z,16.60
2022-10-14T10:23:59.352Z,16.50
2022-10-14T10:30:21.540Z,16.50
2022-10-14T10:36:31.739Z,16.50
2022-10-14T10:42:51.663Z,16.50
2022-10-14T10:49:03.669Z,16.60
2022-10-14T10:55:36.742Z,16.70
2022-10-14T11:01:50.834Z,16.80
2022-10-14T11:08:16.464Z,16.70
2022-10-14T11:14:52.345Z,16.70
2022-10-14T11:21:08.448Z,16.70
2022-10-14T11:27:48.074Z,16.80
2022-10-14T11:34:16.210Z,17.10
2022-10-14T11:40:28.890Z,17.40
2022-10-14T11:46:36.598Z,17.50
2022-10-14T11:53:13.227Z,17.20
2022-10-14T11:59:37.206Z,17.00
2022-10-14T12:05:54.612Z,17.80
2022-10-14T12:12:07.393Z,18.30
2022-10-14T12:18:10.591Z,18.10
2022-10-14T12:24:16.303Z,17.60
2022-10-14T12:30:39.226Z,17.60
2022-10-14T12:36:50.909Z,18.00
2022-10-14T12:42:58.349Z,18.10
2022-10-14T12:49:00.730Z,18.20
2022-10-14T12:55:14.703Z,18.00
2022-10-14T13:01:21.430Z,17.90
2022-10-14T13:07:42.309Z,17.60
2022-10-14T13:13:49.410Z,17.30
2022-10-14T13:19:51.404Z,17.30
2022-10-14T13:26:30.318Z,17.30
2022-10-14T13:32:40.978Z,17.50
2022-10-14T13:38:51.826Z,17.40
2022-10-14T13:44:56.679Z,17.50
2022-10-14T13:51:24.622Z,17.60
2022-10-14T14:04:00.510Z,17.60
2022-10-14T14:10:07.341Z,17.50
2022-10-14T14:16:20.959Z,17.50
2022-10-14T14:22:27.315Z,17.60
2022-10-14T14:28:32.526Z,17.50
2022-10-14T14:34:35.924Z,17.30
2022-10-14T14:40:39.489Z,17.20
2022-10-14T14:46:43.141Z,17.20
2022-10-14T14:52:48.060Z,17.00
2022-10-14T14:58:55.060Z,16.90
2022-10-14T15:05:03.195Z,16.90
2022-10-14T15:11:05.555Z,16.80
2022-10-14T15:17:22.410Z,16.60
2022-10-14T15:23:38.679Z,16.50
2022-10-14T15:29:40.482Z,16.30
2022-10-14T15:35:44.531Z,16.30
2022-10-14T15:41:47.210Z,16.20
2022-10-14T15:48:01.577Z,16.20
2022-10-14T15:54:03.610Z,16.10
2022-10-14T16:00:05.839Z,16.00
2022-10-14T16:06:14.653Z,16.00
2022-10-14T16:12:16.765Z,15.90
2022-10-14T16:18:18.841Z,15.80
2022-10-14T16:24:25.353Z,15.80
2022-10-14T16:30:28.172Z,15.70
2022-10-14T16:36:30.411Z,15.60
2022-10-14T16:42:33.115Z,15.60
2022-10-14T16:48:36.341Z,15.50
2022-10-14T16:54:38.301Z,15.50
2022-10-14T17:00:40.172Z,15.40
2022-10-14T17:06:46.484Z,15.30
2022-10-14T17:12:50.147Z,15.30
2022-10-14T17:18:52.095Z,15.30
2022-10-14T17:24:54.903Z,15.20
2022-10-14T17:30:57.721Z,15.10
2022-10-14T17:36:59.788Z,15.00
2022-10-14T17:43:01.892Z,15.00
2022-10-14T17:49:09.961Z,14.90
2022-10-14T17:55:11.861Z,14.80
2022-10-14T18:01:16.704Z,14.70
2022-10-14T18:07:22.292Z,14.70
2022-10-14T18:13:24.298Z,14.60
2022-10-14T18:19:26.334Z,14.60
2022-10-14T18:25:28.185Z,14.50
2022-10-14T18:31:31.701Z,14.50
2022-10-14T18:37:33.575Z,14.50
2022-10-14T18:43:35.477Z,14.40
2022-10-14T18:49:40.011Z,14.40
2022-10-14T18:55:44.930Z,14.40
2022-10-14T19:01:48.117Z,14.40
2022-10-14T19:07:49.993Z,14.30
2022-10-14T19:13:53.943Z,14.30
2022-10-14T19:19:55.794Z,14.40
2022-10-14T19:25:59.211Z,14.30
2022-10-14T19:32:01.079Z,14.30
2022-10-14T19:38:03.009Z,14.20
2022-10-14T19:44:05.002Z,14.20
2022-10-14T19:50:07.445Z,14.20
2022-10-14T19:56:12.057Z,14.20
2022-10-14T20:02:13.889Z,14.20
2022-10-14T20:14:18.592Z,14.20
2022-10-14T20:20:20.537Z,14.20
2022-10-14T20:26:22.529Z,14.20
2022-10-14T20:32:24.687Z,14.20
2022-10-14T20:38:26.582Z,14.20
2022-10-14T20:44:28.412Z,14.20
2022-10-14T20:50:30.388Z,14.10
2022-10-14T20:56:34.830Z,14.20
2022-10-14T21:02:36.878Z,14.20
2022-10-14T21:08:39.216Z,14.20
2022-10-14T21:14:42.279Z,14.20
2022-10-14T21:20:44.157Z,14.20
2022-10-14T21:26:50.633Z,14.20
2022-10-14T21:32:52.493Z,14.20
2022-10-14T21:38:57.180Z,14.10
2022-10-14T21:44:59.008Z,14.10
2022-10-14T21:51:03.121Z,14.00
2022-10-14T21:57:05.104Z,14.00
2022-10-14T22:03:06.955Z,14.00
2022-10-14T22:09:08.869Z,14.10
2022-10-14T22:15:10.806Z,14.10
2022-10-14T22:21:14.781Z,14.10
2022-10-14T22:27:16.638Z,14.10
2022-10-14T22:33:18.500Z,14.10
2022-10-14T22:39:20.395Z,14.20
2022-10-14T22:45:22.217Z,14.20
2022-10-14T22:51:32.719Z,14.20
2022-10-14T22:57:35.112Z,14.20
2022-10-14T23:03:38.254Z,14.20
2022-10-14T23:09:40.125Z,14.30
2022-10-14T23:15:41.961Z,14.30
2022-10-14T23:21:43.784Z,14.30
2022-10-14T23:27:45.758Z,14.30
2022-10-14T23:33:49.040Z,14.20
2022-10-14T23:39:51.217Z,14.10
2022-10-14T23:45:53.373Z,14.00
2022-10-14T23:51:55.508Z,13.90
2022-10-14T23:57:57.397Z,13.90
